Time,TemperatureF,DewpointF,PressureIn,WindDirection,WindDirectionDegrees,WindSpeedMPH,WindSpeedGustMPH,Humidity,HourlyPrecipIn,Conditions,Clouds,dailyrainin,SoftwareType,DateUTC
2013-01-10 00:01:00,46.0,30.0,-100.00,West,260,12.0,19.0,54,-99.99,,,-99.99,,2013-01-10 08:01:00,
2013-01-10 00:11:00,45.0,30.0,-100.00,WSW,258,13.0,19.0,55,-99.99,,,-99.99,,2013-01-10 08:11:00,
2013-01-10 00:22:00,45.0,30.0,-100.00,West,260,12.0,17.0,55,-99.99,,,-99.99,,2013-01-10 08:22:00,
2013-01-10 00:32:00,45.0,30.0,-100.00,West,263,12.0,18.0,55,-99.99,,,-99.99,,2013-01-10 08:32:00,
2013-01-10 00:42:00,46.0,32.0,-100.00,West,261,11.0,16.0,57,-99.99,,,-99.99,,2013-01-10 08:42:00,
2013-01-10 00:52:00,46.0,32.0,-100.00,WSW,258,11.0,15.0,57,-99.99,,,-99.99,,2013-01-10 08:52:00,
2013-01-10 01:02:00,46.0,32.0,-100.00,West,260,12.0,15.0,57,-99.99,,,-99.99,,2013-01-10 09:02:00,
2013-01-10 01:12:00,46.0,32.0,-100.00,WSW,258,12.0,15.0,57,-99.99,,,-99.99,,2013-01-10 09:12:00,
2013-01-10 01:22:00,46.0,32.0,-100.00,WSW,252,13.0,19.0,57,-99.99,,,-99.99,,2013-01-10 09:22:00,
2013-01-10 01:32:00,46.0,32.0,-100.00,WSW,254,12.0,18.0,59,-99.99,,,-99.99,,2013-01-10 09:32:00,
2013-01-10 01:42:00,45.0,33.0,-100.00,WSW,255,11.0,15.0,62,-99.99,,,-99.99,,2013-01-10 09:42:00,
2013-01-10 01:52:00,45.0,34.0,-100.00,West,260,12.0,17.0,64,-99.99,,,-99.99,,2013-01-10 09:52:00,
2013-01-10 02:02:00,44.0,33.0,-100.00,WSW,253,13.0,16.0,65,-99.99,,,-99.99,,2013-01-10 10:02:00,
2013-01-10 02:11:00,44.0,35.0,-100.00,WSW,257,12.0,15.0,70,-99.99,,,-99.99,,2013-01-10 10:11:00,
2013-01-10 02:22:00,43.0,35.0,-100.00,West,259,13.0,20.0,73,-99.99,,,-99.99,,2013-01-10 10:22:00,
2013-01-10 02:32:00,43.0,35.0,-100.00,WSW,257,13.0,18.0,73,-99.99,,,-99.99,,2013-01-10 10:32:00,
2013-01-10 02:42:00,43.0,35.0,-100.00,WSW,256,13.0,18.0,74,-99.99,,,-99.99,,2013-01-10 10:42:00,
2013-01-10 02:52:00,43.0,35.0,-100.00,West,260,14.0,18.0,73,-99.99,,,-99.99,,2013-01-10 10:52:00,
2013-01-10 03:02:00,42.0,34.0,-100.00,West,262,15.0,19.0,74,-99.99,,,-99.99,,2013-01-10 11:02:00,
2013-01-10 03:12:00,42.0,34.0,-100.00,West,263,15.0,20.0,73,-99.99,,,-99.99,,2013-01-10 11:12:00,
2013-01-10 03:22:00,42.0,34.0,-100.00,West,260,16.0,20.0,73,-99.99,,,-99.99,,2013-01-10 11:22:00,
2013-01-10 03:32:00,42.0,34.0,-100.00,WSW,258,16.0,24.0,74,-99.99,,,-99.99,,2013-01-10 11:32:00,
2013-01-10 03:42:00,41.0,34.0,-100.00,WSW,258,17.0,26.0,77,-99.99,,,-99.99,,2013-01-10 11:42:00,
2013-01-10 03:52:00,40.0,36.0,-100.00,West,259,19.0,27.0,85,-99.99,,,-99.99,,2013-01-10 11:52:00,
2013-01-10 04:02:00,38.0,36.0,-100.00,West,261,18.0,26.0,93,-99.99,,,-99.99,,2013-01-10 12:02:00,
2013-01-10 04:12:00,38.0,37.0,-100.00,West,266,21.0,28.0,96,-99.99,,,-99.99,,2013-01-10 12:12:00,
2013-01-10 04:22:00,38.0,37.0,-100.00,West,262,19.0,28.0,97,-99.99,,,-99.99,,2013-01-10 12:22:00,
2013-01-10 04:32:00,38.0,37.0,-100.00,West,262,20.0,28.0,97,-99.99,,,-99.99,,2013-01-10 12:32:00,
2013-01-10 04:42:00,39.0,38.0,-100.00,WSW,256,18.0,24.0,97,-99.99,,,-99.99,,2013-01-10 12:42:00,
2013-01-10 04:52:00,39.0,38.0,-100.00,WSW,253,18.0,25.0,97,-99.99,,,-99.99,,2013-01-10 12:52:00,
2013-01-10 05:02:00,39.0,38.0,-100.00,WSW,249,20.0,31.0,98,-99.99,,,-99.99,,2013-01-10 13:02:00,
2013-01-10 05:11:00,40.0,39.0,-100.00,WSW,245,20.0,29.0,98,-99.99,,,-99.99,,2013-01-10 13:11:00,
2013-01-10 05:22:00,40.0,39.0,-100.00,WSW,246,23.0,35.0,98,-99.99,,,-99.99,,2013-01-10 13:22:00,
2013-01-10 05:32:00,40.0,39.0,-100.00,WSW,249,22.0,34.0,98,-99.99,,,-99.99,,2013-01-10 13:32:00,
2013-01-10 05:42:00,40.0,39.0,-100.00,WSW,251,20.0,31.0,98,-99.99,,,-99.99,,2013-01-10 13:42:00,
2013-01-10 05:52:00,40.0,39.0,-100.00,WSW,253,20.0,33.0,98,-99.99,,,-99.99,,2013-01-10 13:52:00,
2013-01-10 06:02:00,40.0,39.0,-100.00,WSW,253,19.0,25.0,98,-99.99,,,-99.99,,2013-01-10 14:02:00,
2013-01-10 06:12:00,40.0,39.0,-100.00,WSW,253,21.0,30.0,98,-99.99,,,-99.99,,2013-01-10 14:12:00,
2013-01-10 06:22:00,40.0,39.0,-100.00,WSW,255,21.0,30.0,98,-99.99,,,-99.99,,2013-01-10 14:22:00,
2013-01-10 06:32:00,40.0,39.0,-100.00,WSW,253,21.0,37.0,98,-99.99,,,-99.99,,2013-01-10 14:32:00,
2013-01-10 06:43:00,40.0,39.0,-100.00,WSW,252,23.0,34.0,97,-99.99,,,-99.99,,2013-01-10 14:43:00,
2013-01-10 06:52:00,40.0,39.0,-100.00,WSW,251,22.0,34.0,97,-99.99,,,-99.99,,2013-01-10 14:52:00,
2013-01-10 07:02:00,40.0,39.0,-100.00,WSW,247,23.0,36.0,96,-99.99,,,-99.99,,2013-01-10 15:02:00,
2013-01-10 07:12:00,40.0,39.0,-100.00,WSW,247,23.0,33.0,95,-99.99,,,-99.99,,2013-01-10 15:12:00,
2013-01-10 07:22:00,40.0,39.0,-100.00,WSW,243,25.0,34.0,96,-99.99,,,-99.99,,2013-01-10 15:22:00,
2013-01-10 07:32:00,40.0,39.0,-100.00,WSW,241,23.0,31.0,97,-99.99,,,-99.99,,2013-01-10 15:32:00,
2013-01-10 07:43:00,40.0,39.0,-100.00,WSW,237,22.0,32.0,97,-99.99,,,-99.99,,2013-01-10 15:43:00,
2013-01-10 07:52:00,40.0,39.0,-100.00,WSW,240,22.0,33.0,97,-99.99,,,-99.99,,2013-01-10 15:52:00,
2013-01-10 08:02:00,40.0,39.0,-100.00,WSW,241,20.0,28.0,97,-99.99,,,-99.99,,2013-01-10 16:02:00,
2013-01-10 08:12:00,41.0,40.0,-100.00,WSW,239,20.0,31.0,97,-99.99,,,-99.99,,2013-01-10 16:12:00,
2013-01-10 08:22:00,41.0,40.0,-100.00,WSW,237,22.0,32.0,97,-99.99,,,-99.99,,2013-01-10 16:22:00,
2013-01-10 08:32:00,41.0,40.0,-100.00,WSW,237,24.0,34.0,97,-99.99,,,-99.99,,2013-01-10 16:32:00,
2013-01-10 08:42:00,41.0,40.0,-100.00,WSW,239,23.0,32.0,97,-99.99,,,-99.99,,2013-01-10 16:42:00,
2013-01-10 08:52:00,41.0,40.0,-100.00,WSW,245,22.0,32.0,97,-99.99,,,-99.99,,2013-01-10 16:52:00,
2013-01-10 09:02:00,41.0,40.0,-100.00,WSW,244,23.0,34.0,97,-99.99,,,-99.99,,2013-01-10 17:02:00,
2013-01-10 09:12:00,41.0,40.0,-100.00,WSW,247,25.0,38.0,97,-99.99,,,-99.99,,2013-01-10 17:12:00,
2013-01-10 09:22:00,41.0,40.0,-100.00,WSW,246,25.0,36.0,97,-99.99,,,-99.99,,2013-01-10 17:22:00,
2013-01-10 09:33:00,41.0,40.0,-100.00,WSW,246,28.0,41.0,97,-99.99,,,-99.99,,2013-01-10 17:33:00,
2013-01-10 09:42:00,41.0,40.0,-100.00,WSW,247,27.0,43.0,97,-99.99,,,-99.99,,2013-01-10 17:42:00,
2013-01-10 09:53:00,41.0,40.0,-100.00,WSW,250,28.0,43.0,97,-99.99,,,-99.99,,2013-01-10 17:53:00,
2013-01-10 10:03:00,41.0,40.0,-100.00,WSW,250,28.0,43.0,97,-99.99,,,-99.99,,2013-01-10 18:03:00,
2013-01-10 10:12:00,41.0,40.0,-100.00,WSW,251,27.0,42.0,97,-99.99,,,-99.99,,2013-01-10 18:12:00,
2013-01-10 10:22:00,41.0,40.0,-100.00,WSW,249,27.0,40.0,97,-99.99,,,-99.99,,2013-01-10 18:22:00,
2013-01-10 10:32:00,40.0,39.0,-100.00,West,260,27.0,41.0,97,-99.99,,,-99.99,,2013-01-10 18:32:00,
2013-01-10 10:43:00,39.0,38.0,-100.00,West,262,25.0,37.0,98,-99.99,,,-99.99,,2013-01-10 18:43:00,
2013-01-10 10:52:00,38.0,37.0,-100.00,West,259,27.0,39.0,98,-99.99,,,-99.99,,2013-01-10 18:52:00,
2013-01-10 11:02:00,38.0,37.0,-100.00,WSW,257,26.0,40.0,98,-99.99,,,-99.99,,2013-01-10 19:02:00,
2013-01-10 11:12:00,38.0,37.0,-100.00,WSW,255,26.0,38.0,98,-99.99,,,-99.99,,2013-01-10 19:12:00,
2013-01-10 11:23:00,38.0,37.0,-100.00,WSW,256,27.0,40.0,98,-99.99,,,-99.99,,2013-01-10 19:23:00,
2013-01-10 11:32:00,38.0,37.0,-100.00,WSW,256,27.0,40.0,98,-99.99,,,-99.99,,2013-01-10 19:32:00,
2013-01-10 11:42:00,37.0,36.0,-100.00,WSW,256,26.0,40.0,98,-99.99,,,-99.99,,2013-01-10 19:42:00,
2013-01-10 11:52:00,37.0,36.0,-100.00,WSW,253,27.0,41.0,98,-99.99,,,-99.99,,2013-01-10 19:52:00,
2013-01-10 12:02:00,37.0,36.0,-100.00,WSW,254,29.0,42.0,98,-99.99,,,-99.99,,2013-01-10 20:02:00,
2013-01-10 12:12:00,37.0,36.0,-100.00,WSW,250,29.0,43.0,98,-99.99,,,-99.99,,2013-01-10 20:12:00,
2013-01-10 12:22:00,37.0,36.0,-100.00,WSW,250,28.0,41.0,97,-99.99,,,-99.99,,2013-01-10 20:22:00,
2013-01-10 12:32:00,36.0,35.0,-100.00,WSW,251,29.0,40.0,95,-99.99,,,-99.99,,2013-01-10 20:32:00,
2013-01-10 12:42:00,37.0,35.0,-100.00,WSW,252,28.0,43.0,93,-99.99,,,-99.99,,2013-01-10 20:42:00,
2013-01-10 12:53:00,36.0,34.0,-100.00,West,260,26.0,39.0,91,-99.99,,,-99.99,,2013-01-10 20:53:00,
2013-01-10 13:02:00,36.0,33.0,-100.00,WSW,256,27.0,41.0,88,-99.99,,,-99.99,,2013-01-10 21:02:00,
2013-01-10 13:12:00,36.0,31.0,-100.00,WSW,252,31.0,44.0,83,-99.99,,,-99.99,,2013-01-10 21:12:00,
2013-01-10 13:22:00,37.0,31.0,-100.00,WSW,257,30.0,47.0,80,-99.99,,,-99.99,,2013-01-10 21:22:00,
2013-01-10 13:32:00,37.0,31.0,-100.00,WSW,254,28.0,40.0,80,-99.99,,,-99.99,,2013-01-10 21:32:00,
2013-01-10 13:42:00,37.0,31.0,-100.00,WSW,254,28.0,40.0,80,-99.99,,,-99.99,,2013-01-10 21:42:00,
2013-01-10 13:52:00,37.0,30.0,-100.00,WSW,253,29.0,45.0,76,-99.99,,,-99.99,,2013-01-10 21:52:00,
2013-01-10 14:02:00,37.0,30.0,-100.00,WSW,252,30.0,42.0,75,-99.99,,,-99.99,,2013-01-10 22:02:00,
2013-01-10 14:12:00,37.0,28.0,-100.00,WSW,249,31.0,48.0,71,-99.99,,,-99.99,,2013-01-10 22:12:00,
2013-01-10 14:23:00,38.0,30.0,-100.00,WSW,250,29.0,44.0,74,-99.99,,,-99.99,,2013-01-10 22:23:00,
2013-01-10 14:32:00,37.0,30.0,-100.00,WSW,253,30.0,43.0,75,-99.99,,,-99.99,,2013-01-10 22:32:00,
2013-01-10 14:43:00,37.0,30.0,-100.00,WSW,253,30.0,43.0,75,-99.99,,,-99.99,,2013-01-10 22:43:00,
2013-01-10 15:02:00,37.0,29.0,-100.00,WSW,254,29.0,44.0,73,-99.99,,,-99.99,,2013-01-10 23:02:00,
2013-01-10 15:12:00,37.0,29.0,-100.00,WSW,254,29.0,40.0,74,-99.99,,,-99.99,,2013-01-10 23:12:00,
2013-01-10 15:22:00,36.0,28.0,-100.00,WSW,250,30.0,46.0,71,-99.99,,,-99.99,,2013-01-10 23:22:00,
2013-01-10 15:32:00,36.0,27.0,-100.00,WSW,249,30.0,45.0,69,-99.99,,,-99.99,,2013-01-10 23:32:00,
2013-01-10 15:42:00,36.0,27.0,-100.00,WSW,249,30.0,43.0,70,-99.99,,,-99.99,,2013-01-10 23:42:00,
2013-01-10 15:52:00,36.0,27.0,-100.00,WSW,247,30.0,41.0,69,-99.99,,,-99.99,,2013-01-10 23:52:00,
2013-01-10 16:02:00,36.0,27.0,-100.00,WSW,251,28.0,43.0,70,-99.99,,,-99.99,,2013-01-11 00:02:00,
2013-01-10 16:12:00,36.0,28.0,-100.00,WSW,253,27.0,40.0,71,-99.99,,,-99.99,,2013-01-11 00:12:00,
2013-01-10 16:22:00,35.0,27.0,-100.00,WSW,256,26.0,41.0,71,-99.99,,,-99.99,,2013-01-11 00:22:00,
2013-01-10 16:32:00,35.0,27.0,-100.00,WSW,252,29.0,43.0,72,-99.99,,,-99.99,,2013-01-11 00:32:00,
2013-01-10 16:42:00,35.0,28.0,-100.00,WSW,255,25.0,38.0,74,-99.99,,,-99.99,,2013-01-11 00:42:00,
2013-01-10 16:52:00,35.0,27.0,-100.00,WSW,251,25.0,38.0,73,-99.99,,,-99.99,,2013-01-11 00:52:00,
2013-01-10 17:02:00,35.0,27.0,-100.00,WSW,251,25.0,38.0,73,-99.99,,,-99.99,,2013-01-11 01:02:00,
2013-01-10 17:12:00,34.0,27.0,-100.00,WSW,253,24.0,36.0,76,-99.99,,,-99.99,,2013-01-11 01:12:00,
2013-01-10 17:22:00,34.0,28.0,-100.00,WSW,253,24.0,38.0,77,-99.99,,,-99.99,,2013-01-11 01:22:00,
2013-01-10 17:33:00,34.0,28.0,-100.00,WSW,250,24.0,34.0,80,-99.99,,,-99.99,,2013-01-11 01:33:00,
2013-01-10 17:42:00,34.0,29.0,-100.00,WSW,249,23.0,35.0,82,-99.99,,,-99.99,,2013-01-11 01:42:00,
2013-01-10 17:52:00,34.0,30.0,-100.00,WSW,255,20.0,32.0,85,-99.99,,,-99.99,,2013-01-11 01:52:00,
2013-01-10 18:02:00,34.0,30.0,-100.00,WSW,250,21.0,35.0,85,-99.99,,,-99.99,,2013-01-11 02:02:00,
2013-01-10 18:12:00,33.0,29.0,-100.00,WSW,254,21.0,30.0,86,-99.99,,,-99.99,,2013-01-11 02:12:00,
2013-01-10 18:22:00,33.0,31.0,-100.00,WSW,255,19.0,32.0,91,-99.99,,,-99.99,,2013-01-11 02:22:00,
2013-01-10 18:32:00,32.0,30.0,-100.00,WSW,253,17.0,25.0,93,-99.99,,,-99.99,,2013-01-11 02:32:00,
2013-01-10 18:42:00,33.0,31.0,-100.00,WSW,249,19.0,33.0,91,-99.99,,,-99.99,,2013-01-11 02:42:00,
2013-01-10 18:53:00,33.0,30.0,-100.00,WSW,256,17.0,27.0,90,-99.99,,,-99.99,,2013-01-11 02:53:00,
2013-01-10 19:02:00,33.0,31.0,-100.00,WSW,256,17.0,27.0,91,-99.99,,,-99.99,,2013-01-11 03:02:00,
2013-01-10 19:12:00,32.0,30.0,-100.00,WSW,258,17.0,27.0,94,-99.99,,,-99.99,,2013-01-11 03:12:00,
2013-01-10 19:22:00,32.0,31.0,-100.00,West,259,19.0,28.0,96,-99.99,,,-99.99,,2013-01-11 03:22:00,
2013-01-10 19:33:00,32.0,31.0,-100.00,WSW,255,19.0,32.0,96,-99.99,,,-99.99,,2013-01-11 03:33:00,
2013-01-10 19:42:00,32.0,31.0,-100.00,WSW,255,19.0,32.0,96,-99.99,,,-99.99,,2013-01-11 03:42:00,
2013-01-10 19:52:00,32.0,31.0,-100.00,WSW,256,19.0,30.0,96,-99.99,,,-99.99,,2013-01-11 03:52:00,
2013-01-10 20:02:00,32.0,31.0,-100.00,WSW,256,19.0,30.0,96,-99.99,,,-99.99,,2013-01-11 04:02:00,
2013-01-10 20:12:00,32.0,31.0,-100.00,West,260,17.0,26.0,95,-99.99,,,-99.99,,2013-01-11 04:12:00,
2013-01-10 20:22:00,32.0,31.0,-100.00,West,260,18.0,26.0,96,-99.99,,,-99.99,,2013-01-11 04:22:00,
2013-01-10 20:32:00,32.0,31.0,-100.00,WSW,251,20.0,31.0,96,-99.99,,,-99.99,,2013-01-11 04:32:00,
2013-01-10 20:42:00,33.0,32.0,-100.00,WSW,251,20.0,32.0,95,-99.99,,,-99.99,,2013-01-11 04:42:00,
2013-01-10 20:52:00,33.0,32.0,-100.00,West,259,20.0,32.0,95,-99.99,,,-99.99,,2013-01-11 04:52:00,
2013-01-10 21:03:00,32.0,31.0,-100.00,WSW,257,17.0,29.0,96,-99.99,,,-99.99,,2013-01-11 05:03:00,
2013-01-10 21:12:00,32.0,31.0,-100.00,WSW,257,20.0,28.0,96,-99.99,,,-99.99,,2013-01-11 05:12:00,
2013-01-10 21:22:00,32.0,31.0,-100.00,WSW,258,18.0,27.0,96,-99.99,,,-99.99,,2013-01-11 05:22:00,
2013-01-10 21:33:00,32.0,31.0,-100.00,West,259,17.0,28.0,96,-99.99,,,-99.99,,2013-01-11 05:33:00,
2013-01-10 21:42:00,32.0,31.0,-100.00,West,259,17.0,28.0,96,-99.99,,,-99.99,,2013-01-11 05:42:00,
2013-01-10 21:52:00,32.0,31.0,-100.00,West,261,20.0,30.0,96,-99.99,,,-99.99,,2013-01-11 05:52:00,
2013-01-10 22:02:00,32.0,31.0,-100.00,West,259,18.0,25.0,95,-99.99,,,-99.99,,2013-01-11 06:02:00,
2013-01-10 22:12:00,33.0,32.0,-100.00,WSW,256,18.0,27.0,95,-99.99,,,-99.99,,2013-01-11 06:12:00,
2013-01-10 22:22:00,33.0,32.0,-100.00,West,260,19.0,31.0,95,-99.99,,,-99.99,,2013-01-11 06:22:00,
2013-01-10 22:32:00,33.0,32.0,-100.00,West,260,19.0,29.0,95,-99.99,,,-99.99,,2013-01-11 06:32:00,
2013-01-10 22:42:00,33.0,32.0,-100.00,West,263,18.0,28.0,95,-99.99,,,-99.99,,2013-01-11 06:42:00,
2013-01-10 22:52:00,33.0,31.0,-100.00,West,259,18.0,31.0,94,-99.99,,,-99.99,,2013-01-11 06:52:00,
2013-01-10 23:02:00,33.0,32.0,-100.00,West,265,19.0,29.0,95,-99.99,,,-99.99,,2013-01-11 07:02:00,
2013-01-10 23:11:00,33.0,32.0,-100.00,West,268,19.0,31.0,95,-99.99,,,-99.99,,2013-01-11 07:11:00,
2013-01-10 23:22:00,33.0,31.0,-100.00,West,273,20.0,32.0,93,-99.99,,,-99.99,,2013-01-11 07:22:00,
2013-01-10 23:32:00,33.0,30.0,-100.00,West,273,20.0,29.0,88,-99.99,,,-99.99,,2013-01-11 07:32:00,
2013-01-10 23:42:00,33.0,29.0,-100.00,West,270,23.0,34.0,85,-99.99,,,-99.99,,2013-01-11 07:42:00,
2013-01-10 23:52:00,32.0,27.0,-100.00,West,268,21.0,31.0,83,-99.99,,,-99.99,,2013-01-11 07:52:00,